Time;durP1;ratioP1;P1;durP2;ratioP2;P2;SDS_P1;SDS_P2;PMS_P1;PMS_P2;Temp;Humidity;BMP_temperature;BMP_pressure;BME280_temperature;BME280_humidity;BME280_pressure;Samples;Min_cycle;Max_cycle;Signal;HPM_P1;HPM_P2
2022/07/21 00:00:09;;;;;;;15.73;13.80;;;26.50;69.20;;;;;;5071068;28;20052;-71
2022/07/21 00:03:13;;;;;;;20.52;15.23;;;26.10;69.90;;;;;;5071239;28;20048;-71
2022/07/21 00:06:17;;;;;;;16.58;13.77;;;25.90;70.10;;;;;;5071486;28;20403;-71
2022/07/21 00:09:21;;;;;;;15.93;13.13;;;25.80;70.50;;;;;;5071238;28;20067;-71
2022/07/21 00:12:25;;;;;;;18.42;13.85;;;25.70;71.00;;;;;;5071293;28;20043;-71
2022/07/21 00:15:29;;;;;;;20.35;14.38;;;25.60;71.20;;;;;;5070968;28;20044;-71
2022/07/21 00:18:34;;;;;;;17.58;13.77;;;25.50;71.50;;;;;;5071351;28;20043;-71
2022/07/21 00:21:38;;;;;;;19.88;13.70;;;25.40;71.60;;;;;;5071140;28;20055;-71
2022/07/21 00:24:42;;;;;;;20.85;13.85;;;25.30;72.00;;;;;;5071817;28;20047;-71
2022/07/21 00:27:46;;;;;;;18.20;13.45;;;25.20;72.10;;;;;;5071359;28;20411;-71
2022/07/21 00:30:50;;;;;;;22.50;13.93;;;25.20;72.40;;;;;;5071232;28;20046;-71
2022/07/21 00:33:54;;;;;;;17.52;12.60;;;25.10;72.60;;;;;;5070546;28;20530;-71
2022/07/21 00:36:58;;;;;;;19.00;13.25;;;25.10;73.10;;;;;;5071229;28;20052;-71
2022/07/21 00:40:05;;;;;;;17.33;13.15;;;25.10;73.40;;;;;;5070902;28;20494;-71
2022/07/21 00:43:09;;;;;;;16.20;13.15;;;25.10;72.80;;;;;;5070533;28;20048;-71
2022/07/21 00:46:13;;;;;;;19.33;13.77;;;25.00;72.70;;;;;;5070969;28;20493;-71
2022/07/21 00:49:17;;;;;;;18.10;13.35;;;25.10;72.60;;;;;;5065595;28;20048;-71
2022/07/21 00:52:21;;;;;;;16.73;13.25;;;25.10;72.50;;;;;;5070645;28;20043;-71
2022/07/21 00:55:26;;;;;;;21.73;14.35;;;25.10;72.50;;;;;;5070658;28;20082;-71
2022/07/21 00:58:29;;;;;;;20.73;15.00;;;25.10;72.20;;;;;;5070952;28;20036;-71
2022/07/21 01:01:33;;;;;;;18.75;14.63;;;25.10;72.30;;;;;;5070121;28;20043;-71
2022/07/21 01:04:37;;;;;;;20.80;16.25;;;25.10;72.80;;;;;;5070438;28;20047;-71
2022/07/21 01:07:43;;;;;;;22.42;16.20;;;25.10;72.70;;;;;;5070859;28;20056;-71
2022/07/21 01:10:48;;;;;;;17.92;15.10;;;25.10;72.20;;;;;;5070167;28;20052;-71
2022/07/21 01:13:52;;;;;;;20.35;14.00;;;25.20;72.00;;;;;;5069859;28;20044;-71
2022/07/21 01:16:56;;;;;;;26.20;15.02;;;25.20;71.70;;;;;;5070696;28;20047;-71
2022/07/21 01:20:09;;;;;;;19.42;15.65;;;25.30;71.90;;;;;;5070552;28;20048;-71
2022/07/21 01:23:15;;;;;;;25.10;17.48;;;25.20;72.00;;;;;;5070482;28;20035;-71
2022/07/21 01:26:20;;;;;;;26.17;16.55;;;25.20;72.10;;;;;;5070153;28;20043;-71
2022/07/21 01:29:24;;;;;;;25.85;18.42;;;25.10;72.50;;;;;;5070581;28;20039;-71
2022/07/21 01:32:28;;;;;;;24.27;18.50;;;25.10;72.60;;;;;;5070340;28;20387;-71
2022/07/21 01:35:32;;;;;;;21.90;17.52;;;25.10;72.90;;;;;;5070163;28;20055;-71
2022/07/21 01:41:59;;;;;;;21.90;18.50;;;25.10;73.00;;;;;;5069506;28;20044;-71
2022/07/21 01:45:05;;;;;;;21.90;17.75;;;25.00;72.80;;;;;;5069923;28;20391;-71
2022/07/21 01:48:10;;;;;;;22.63;17.85;;;25.00;72.70;;;;;;5070349;28;20036;-71
2022/07/21 01:51:14;;;;;;;21.85;15.70;;;24.90;72.70;;;;;;5070033;28;20497;-71
2022/07/21 01:54:18;;;;;;;21.77;16.95;;;24.90;72.70;;;;;;5069649;28;20052;-71
2022/07/21 01:57:22;;;;;;;20.58;16.15;;;24.80;73.00;;;;;;5069853;28;20315;-71
2022/07/21 02:00:26;;;;;;;33.53;14.50;;;24.80;73.50;;;;;;5070119;28;20055;-71
2022/07/21 02:03:30;;;;;;;22.70;13.35;;;24.50;74.80;;;;;;5069778;28;20051;-71
2022/07/21 02:06:35;;;;;;;20.55;13.02;;;24.40;75.50;;;;;;5070181;28;20035;-71
2022/07/21 02:09:39;;;;;;;14.45;10.82;;;24.20;76.10;;;;;;5070059;28;20043;-71
2022/07/21 02:12:43;;;;;;;20.38;11.55;;;24.10;76.90;;;;;;5057544;28;20040;-71
2022/07/21 02:15:47;;;;;;;21.13;14.27;;;24.00;77.30;;;;;;5070044;28;20044;-71
2022/07/21 02:18:51;;;;;;;22.48;14.43;;;24.00;77.00;;;;;;5070083;28;20048;-71
2022/07/21 02:21:55;;;;;;;21.23;13.77;;;24.00;77.40;;;;;;5070371;28;20491;-71
2022/07/21 02:24:59;;;;;;;16.45;12.32;;;24.00;77.50;;;;;;5072998;28;20039;-71
2022/07/21 02:28:03;;;;;;;18.73;12.80;;;23.90;77.50;;;;;;5073661;28;20047;-71
2022/07/21 02:31:07;;;;;;;24.42;13.68;;;23.90;77.80;;;;;;5073636;28;20052;-71
2022/07/21 02:34:11;;;;;;;21.27;12.75;;;23.90;77.90;;;;;;5073001;28;20060;-71
2022/07/21 02:37:14;;;;;;;19.00;13.18;;;23.80;78.20;;;;;;5072912;28;20397;-71
2022/07/21 02:40:18;;;;;;;16.25;12.30;;;23.80;78.10;;;;;;5073153;28;20501;-71
2022/07/21 02:43:23;;;;;;;18.00;12.00;;;23.70;78.40;;;;;;5072582;28;20482;-71
2022/07/21 02:46:27;;;;;;;17.70;12.48;;;23.70;78.60;;;;;;5073161;28;20379;-71
2022/07/21 02:49:31;;;;;;;20.05;13.70;;;23.60;78.60;;;;;;5073158;28;20063;-71
2022/07/21 02:52:35;;;;;;;21.35;12.93;;;23.50;79.00;;;;;;5073231;28;20395;-71
2022/07/21 02:55:39;;;;;;;21.88;13.90;;;23.50;79.20;;;;;;5072742;28;20063;-71
2022/07/21 02:58:43;;;;;;;22.15;14.38;;;23.40;79.30;;;;;;5073119;28;20044;-71
2022/07/21 03:01:48;;;;;;;23.10;14.88;;;23.50;78.90;;;;;;5072236;28;20506;-71
2022/07/21 03:04:52;;;;;;;22.05;14.40;;;23.50;78.50;;;;;;5072640;28;20046;-71
2022/07/21 03:07:55;;;;;;;22.92;14.68;;;23.50;78.70;;;;;;5072270;28;20044;-71
2022/07/21 03:10:59;;;;;;;30.85;14.30;;;23.60;78.50;;;;;;5060507;28;20931;-71
2022/07/21 03:14:04;;;;;;;22.48;13.82;;;23.60;78.40;;;;;;5072256;28;20506;-71
2022/07/21 03:17:08;;;;;;;21.05;13.95;;;23.70;78.30;;;;;;5072656;28;20051;-71
2022/07/21 03:20:12;;;;;;;21.80;12.68;;;23.60;78.20;;;;;;5072356;28;20047;-71
2022/07/21 03:23:16;;;;;;;18.83;13.45;;;23.60;78.80;;;;;;5072291;28;20399;-70
2022/07/21 03:26:21;;;;;;;15.68;11.50;;;23.50;78.80;;;;;;5072833;28;20040;-71
2022/07/21 03:29:25;;;;;;;17.40;12.20;;;23.50;78.70;;;;;;5072505;28;20035;-71
2022/07/21 03:32:29;;;;;;;21.05;12.40;;;23.50;79.50;;;;;;5072101;28;20422;-71
2022/07/21 03:35:35;;;;;;;16.95;12.50;;;23.50;78.70;;;;;;5071838;28;20055;-71
2022/07/21 03:38:39;;;;;;;21.98;12.43;;;23.30;78.90;;;;;;5072002;28;20051;-71
2022/07/21 03:41:43;;;;;;;17.67;11.57;;;23.20;79.50;;;;;;5071326;28;20060;-71
2022/07/21 03:44:47;;;;;;;13.38;10.88;;;23.10;79.70;;;;;;5071247;28;20039;-71
2022/07/21 03:47:51;;;;;;;21.83;11.90;;;23.00;79.80;;;;;;5071948;28;20490;-71
2022/07/21 03:50:55;;;;;;;19.17;11.50;;;23.00;79.90;;;;;;5071966;28;20059;-71
2022/07/21 03:54:01;;;;;;;21.27;12.25;;;22.90;79.90;;;;;;5071401;28;20395;-71
2022/07/21 03:57:05;;;;;;;19.05;12.98;;;22.90;80.10;;;;;;5071808;28;20498;-71
2022/07/21 04:00:12;;;;;;;18.25;12.25;;;22.80;80.70;;;;;;5071648;28;20048;-71
2022/07/21 04:03:16;;;;;;;18.58;12.95;;;22.70;81.50;;;;;;5071384;28;20055;-71
2022/07/21 04:06:20;;;;;;;21.52;14.40;;;22.60;82.30;;;;;;5070786;28;20056;-71
2022/07/21 04:09:24;;;;;;;19.65;13.73;;;22.40;83.20;;;;;;5071506;28;20055;-71
2022/07/21 04:12:28;;;;;;;21.08;15.40;;;22.40;83.10;;;;;;5071227;28;20052;-71
2022/07/21 04:15:33;;;;;;;24.35;16.23;;;22.40;83.60;;;;;;5071086;28;20047;-71
2022/07/21 04:18:37;;;;;;;27.48;16.85;;;22.40;84.00;;;;;;5071478;28;20047;-71
2022/07/21 04:21:41;;;;;;;30.42;18.17;;;22.40;84.10;;;;;;5071391;28;20055;-71
2022/07/21 04:24:45;;;;;;;25.48;18.95;;;22.40;83.90;;;;;;5070763;28;20040;-71
2022/07/21 04:27:51;;;;;;;25.30;17.02;;;22.40;84.00;;;;;;5071560;28;20043;-71
2022/07/21 04:30:54;;;;;;;28.88;19.83;;;22.40;84.10;;;;;;5071287;28;20062;-71
2022/07/21 04:33:59;;;;;;;35.00;22.13;;;22.50;84.00;;;;;;5071049;28;20510;-70
2022/07/21 04:37:03;;;;;;;39.35;20.88;;;22.60;84.00;;;;;;5071371;28;20382;-71
2022/07/21 04:40:10;;;;;;;28.52;19.38;;;22.60;83.90;;;;;;5071302;28;20426;-71
2022/07/21 04:43:15;;;;;;;28.90;19.48;;;22.70;83.90;;;;;;5070769;28;20411;-71
2022/07/21 04:46:20;;;;;;;41.10;26.05;;;22.90;83.80;;;;;;5071226;28;20043;-71
2022/07/21 04:49:23;;;;;;;31.60;20.33;;;23.40;82.50;;;;;;5070900;28;20051;-71
2022/07/21 04:52:27;;;;;;;26.95;18.90;;;24.20;82.10;;;;;;5071345;28;20498;-71
2022/07/21 04:55:32;;;;;;;24.10;17.35;;;24.70;80.40;;;;;;5070398;28;20056;-72
2022/07/21 04:58:36;;;;;;;27.48;16.65;;;25.20;79.80;;;;;;5071434;28;20044;-70
2022/07/21 05:01:40;;;;;;;26.85;18.10;;;25.40;79.00;;;;;;5071089;28;20051;-71
2022/07/21 05:04:43;;;;;;;26.15;18.48;;;25.70;78.70;;;;;;5070795;28;20044;-71
2022/07/21 05:07:48;;;;;;;27.92;17.63;;;26.30;77.70;;;;;;5071387;28;20506;-71
2022/07/21 05:10:52;;;;;;;25.75;19.65;;;26.80;76.90;;;;;;5071163;28;20063;-71
2022/07/21 05:13:57;;;;;;;25.40;18.63;;;27.40;75.90;;;;;;5070541;28;20052;-71
2022/07/21 05:17:01;;;;;;;27.67;19.05;;;27.80;75.30;;;;;;5071173;28;20054;-71
2022/07/21 05:20:06;;;;;;;32.08;18.85;;;28.10;74.90;;;;;;5070707;28;20047;-72
2022/07/21 05:23:10;;;;;;;27.35;18.35;;;28.70;74.10;;;;;;5072064;28;20051;-71
2022/07/21 05:26:14;;;;;;;26.55;20.65;;;29.00;73.20;;;;;;5070894;28;20302;-72
2022/07/21 05:29:18;;;;;;;25.13;19.00;;;29.10;72.20;;;;;;5070278;28;20040;-71
2022/07/21 05:32:22;;;;;;;27.40;19.60;;;29.30;72.20;;;;;;5070113;28;20494;-72
2022/07/21 05:35:26;;;;;;;30.75;22.02;;;29.70;72.00;;;;;;5070179;28;20060;-71
2022/07/21 05:38:30;;;;;;;30.67;21.13;;;29.80;71.30;;;;;;5070468;28;20502;-72
2022/07/21 05:41:34;;;;;;;26.10;18.63;;;30.20;71.10;;;;;;5070128;28;20052;-72
2022/07/21 05:44:38;;;;;;;22.35;18.10;;;30.60;69.80;;;;;;5069826;28;20043;-72
2022/07/21 05:47:42;;;;;;;26.55;18.35;;;30.70;69.70;;;;;;5070198;28;20048;-71
2022/07/21 05:50:47;;;;;;;29.33;19.80;;;30.60;69.50;;;;;;5070395;28;20071;-71
2022/07/21 05:53:52;;;;;;;26.42;15.20;;;30.30;69.60;;;;;;5069670;28;20047;-71
2022/07/21 05:56:56;;;;;;;24.10;16.10;;;30.30;69.60;;;;;;5072427;28;20043;-72
2022/07/21 06:00:00;;;;;;;25.77;16.58;;;30.80;69.00;;;;;;5073731;28;20051;-72
2022/07/21 06:03:05;;;;;;;26.55;18.77;;;31.40;68.40;;;;;;5073813;28;20056;-72
2022/07/21 06:06:09;;;;;;;25.95;15.50;;;32.00;67.20;;;;;;5073983;28;20040;-72
2022/07/21 06:09:14;;;;;;;22.02;15.90;;;32.60;66.50;;;;;;5068003;28;20039;-72
2022/07/21 06:12:18;;;;;;;23.05;15.23;;;33.00;66.00;;;;;;5073582;28;20067;-72
2022/07/21 06:15:22;;;;;;;16.73;14.30;;;32.70;66.10;;;;;;5073574;28;20048;-72
2022/07/21 06:18:26;;;;;;;16.73;11.32;;;32.20;65.90;;;;;;5073578;28;20418;-71
2022/07/21 06:21:30;;;;;;;16.73;11.27;;;31.80;67.00;;;;;;5072655;28;20052;-72
2022/07/21 06:24:34;;;;;;;16.20;9.82;;;32.00;67.00;;;;;;5072074;28;20494;-71
2022/07/21 06:27:38;;;;;;;27.92;12.20;;;31.80;67.20;;;;;;5068298;28;20044;-71
2022/07/21 06:30:42;;;;;;;27.77;11.80;;;32.00;66.90;;;;;;5072500;28;20525;-71
2022/07/21 06:33:46;;;;;;;17.13;11.60;;;32.70;66.40;;;;;;5072606;28;20051;-72
2022/07/21 06:36:50;;;;;;;19.88;12.55;;;32.60;66.40;;;;;;5073374;28;20039;-71
2022/07/21 06:39:54;;;;;;;23.35;13.00;;;32.20;66.60;;;;;;5072781;28;20063;-71
2022/07/21 06:43:01;;;;;;;19.65;13.25;;;31.90;67.90;;;;;;5071818;28;20036;-72
2022/07/21 06:46:05;;;;;;;29.73;17.30;;;31.30;68.30;;;;;;5071897;28;20050;-71
2022/07/21 06:49:09;;;;;;;22.83;16.52;;;31.30;67.60;;;;;;5071877;28;20059;-72
2022/07/21 06:52:12;;;;;;;21.40;14.25;;;31.40;67.20;;;;;;5069471;28;20048;-72
2022/07/21 06:55:18;;;;;;;17.15;12.85;;;31.40;67.90;;;;;;5053000;28;20754;-72
2022/07/21 06:58:27;;;;;;;17.23;13.48;;;32.30;66.80;;;;;;5060775;28;20048;-72
2022/07/21 07:01:31;;;;;;;22.38;13.50;;;32.60;66.80;;;;;;5069493;28;20549;-72
2022/07/21 07:04:35;;;;;;;30.77;14.50;;;33.40;66.00;;;;;;5072151;28;20040;-72
2022/07/21 07:07:40;;;;;;;19.23;14.60;;;34.00;65.00;;;;;;5072607;28;20064;-72
2022/07/21 07:10:45;;;;;;;26.65;16.05;;;34.10;64.50;;;;;;5072467;28;20052;-73
2022/07/21 07:13:50;;;;;;;25.00;20.30;;;34.40;63.80;;;;;;5072032;28;20039;-72
2022/07/21 07:16:53;;;;;;;23.20;15.48;;;32.90;64.40;;;;;;5072618;28;20059;-72
2022/07/21 07:19:57;;;;;;;24.73;15.15;;;33.20;66.00;;;;;;5072288;28;20048;-72
2022/07/21 07:23:01;;;;;;;24.48;18.10;;;34.30;64.40;;;;;;5058640;28;20047;-72
2022/07/21 07:26:07;;;;;;;21.23;18.42;;;35.00;63.00;;;;;;5072240;28;20055;-72
2022/07/21 07:29:12;;;;;;;28.13;24.02;;;36.00;62.40;;;;;;5072224;28;20039;-72
2022/07/21 07:32:16;;;;;;;25.50;21.58;;;37.10;60.20;;;;;;5071133;28;20154;-72
2022/07/21 07:35:21;;;;;;;29.73;21.88;;;37.70;59.50;;;;;;5070877;28;20060;-71
2022/07/21 07:38:25;;;;;;;24.65;20.55;;;38.20;59.10;;;;;;5059161;28;20044;-72
2022/07/21 07:41:31;;;;;;;25.80;21.52;;;38.20;58.90;;;;;;5070786;28;20474;-72
2022/07/21 07:44:35;;;;;;;27.40;21.25;;;38.50;59.10;;;;;;5067912;28;20123;-72
2022/07/21 07:47:39;;;;;;;24.40;20.20;;;38.90;57.80;;;;;;5072086;28;20486;-72
2022/07/21 07:50:43;;;;;;;22.17;18.73;;;39.10;57.80;;;;;;5071646;28;20059;-71
2022/07/21 07:53:47;;;;;;;23.10;18.20;;;38.90;58.10;;;;;;5071199;28;20043;-72
2022/07/21 07:56:51;;;;;;;22.90;18.13;;;39.10;57.90;;;;;;5072079;28;20059;-72
2022/07/21 07:59:55;;;;;;;25.60;18.20;;;38.40;57.90;;;;;;5056590;28;20040;-72
2022/07/21 08:02:59;;;;;;;32.25;17.63;;;38.40;57.30;;;;;;5071134;28;20047;-71
2022/07/21 08:06:06;;;;;;;25.45;18.98;;;39.70;57.20;;;;;;5059212;28;20055;-71
2022/07/21 08:09:09;;;;;;;24.38;17.77;;;40.50;56.50;;;;;;5072069;28;20052;-71
2022/07/21 08:12:13;;;;;;;21.13;17.85;;;41.10;56.30;;;;;;5055465;28;20048;-71
2022/07/21 08:15:19;;;;;;;23.95;16.77;;;40.60;56.20;;;;;;5068971;28;20047;-71
2022/07/21 08:18:24;;;;;;;21.27;16.77;;;41.40;56.00;;;;;;5067107;28;20048;-71
2022/07/21 08:21:30;;;;;;;18.92;16.08;;;41.70;55.10;;;;;;5073289;28;20043;-72
2022/07/21 08:24:35;;;;;;;18.98;16.70;;;41.70;55.40;;;;;;5068459;28;20047;-72
2022/07/21 08:27:42;;;;;;;18.52;16.17;;;41.80;54.80;;;;;;5063966;28;20048;-71
2022/07/21 08:30:46;;;;;;;17.55;15.13;;;41.20;55.20;;;;;;5051103;28;20386;-72
2022/07/21 08:33:51;;;;;;;20.95;16.15;;;41.80;54.70;;;;;;5066615;28;20498;-71
2022/07/21 08:36:55;;;;;;;17.63;14.55;;;41.80;54.30;;;;;;5083174;28;20047;-72
2022/07/21 08:39:59;;;;;;;17.67;14.57;;;42.30;53.50;;;;;;5071351;28;20102;-72
2022/07/21 08:43:04;;;;;;;16.05;14.05;;;42.20;53.50;;;;;;5049895;28;20056;-72
2022/07/21 08:46:09;;;;;;;16.52;14.63;;;42.40;54.60;;;;;;5050034;28;20047;-72
2022/07/21 08:49:13;;;;;;;17.00;14.65;;;42.20;53.00;;;;;;5058479;28;20068;-72
2022/07/21 08:52:18;;;;;;;17.48;15.15;;;43.20;52.80;;;;;;5072381;28;20031;-72
2022/07/21 08:55:24;;;;;;;20.02;15.82;;;44.50;51.90;;;;;;5069415;28;20501;-72
2022/07/21 08:58:28;;;;;;;21.95;16.20;;;43.30;51.90;;;;;;5070702;28;20040;-73
2022/07/21 09:01:33;;;;;;;24.38;16.90;;;41.50;51.90;;;;;;5060779;28;20048;-72
2022/07/21 09:04:37;;;;;;;18.10;15.85;;;42.60;52.60;;;;;;5069916;28;20367;-72
2022/07/21 09:07:57;;;;;;;18.23;15.10;;;44.40;51.60;;;;;;5074306;28;20047;-72
2022/07/21 09:11:14;;;;;;;29.70;24.05;;;46.10;50.80;;;;;;5080033;28;20044;-73
2022/07/21 09:14:21;;;;;;;39.53;35.13;;;47.60;49.40;;;;;;5067146;28;20044;-72
2022/07/21 09:17:25;;;;;;;34.08;30.40;;;49.30;48.00;;;;;;5081814;28;20048;-72
2022/07/21 09:20:29;;;;;;;39.42;35.72;;;50.50;47.40;;;;;;5074411;28;20051;-72
2022/07/21 09:23:33;;;;;;;39.45;35.42;;;51.10;46.90;;;;;;5078119;28;20051;-72
2022/07/21 09:26:56;;;;;;;32.67;29.52;;;50.70;46.50;;;;;;5071110;28;20048;-72
2022/07/21 09:30:02;;;;;;;29.00;25.77;;;49.80;47.10;;;;;;5069390;28;20036;-72
2022/07/21 09:33:22;;;;;;;27.58;24.73;;;49.80;47.90;;;;;;5074424;28;20063;-72
2022/07/21 09:36:27;;;;;;;24.35;21.23;;;51.30;47.20;;;;;;5077543;28;20063;-73
2022/07/21 09:39:49;;;;;;;24.75;22.35;;;51.50;47.30;;;;;;5074009;28;20043;-73
2022/07/21 09:42:53;;;;;;;31.67;28.67;;;52.50;47.20;;;;;;5077157;28;20048;-73
2022/07/21 09:46:01;;;;;;;26.25;23.65;;;52.20;46.90;;;;;;5083477;28;20047;-73
2022/07/21 09:49:06;;;;;;;27.15;24.45;;;49.70;48.00;;;;;;5083840;28;20119;-73
2022/07/21 09:52:20;;;;;;;24.23;21.80;;;49.80;48.00;;;;;;5080393;28;20061;-73
2022/07/21 09:55:24;;;;;;;28.55;25.75;;;49.30;47.90;;;;;;5078174;28;20110;-72
2022/07/21 09:58:28;;;;;;;30.88;27.65;;;50.30;48.30;;;;;;5079305;28;20058;-73
2022/07/21 10:01:32;;;;;;;31.10;28.25;;;49.00;48.20;;;;;;5084749;28;20055;-73
2022/07/21 10:04:36;;;;;;;33.03;29.83;;;47.50;48.10;;;;;;5078013;28;20039;-74
2022/07/21 10:07:46;;;;;;;36.63;32.78;;;48.20;49.20;;;;;;5060800;28;20043;-71
2022/07/21 10:10:50;;;;;;;29.77;26.83;;;49.50;48.30;;;;;;5073354;28;20059;-73
2022/07/21 10:13:55;;;;;;;32.15;29.02;;;49.50;48.00;;;;;;5074221;28;20051;-72
2022/07/21 10:16:59;;;;;;;29.65;26.70;;;46.90;47.60;;;;;;5075706;28;20043;-72
2022/07/21 10:20:08;;;;;;;28.48;25.75;;;48.30;48.90;;;;;;5073678;28;20052;-72
2022/07/21 10:23:31;;;;;;;28.27;24.92;;;50.10;47.80;;;;;;5072879;28;20060;-71
2022/07/21 10:26:35;;;;;;;24.70;21.98;;;51.80;47.20;;;;;;5073214;28;20036;-72
2022/07/21 10:29:49;;;;;;;26.65;20.48;;;52.30;46.70;;;;;;5074105;28;20047;-72
2022/07/21 10:32:53;;;;;;;22.23;20.02;;;51.60;46.80;;;;;;5071411;28;20063;-72
2022/07/21 10:35:57;;;;;;;23.95;21.65;;;51.60;46.80;;;;;;5081480;28;20050;-73
2022/07/21 10:39:23;;;;;;;27.35;24.55;;;52.20;47.00;;;;;;5072200;28;20395;-73
2022/07/21 10:42:32;;;;;;;29.23;26.48;;;52.00;46.80;;;;;;5068344;28;20597;-72
2022/07/21 10:45:42;;;;;;;24.30;21.90;;;51.80;46.60;;;;;;5078809;28;20497;-72
2022/07/21 10:48:47;;;;;;;34.22;30.55;;;49.20;47.70;;;;;;5077819;28;20044;-73
2022/07/21 10:51:51;;;;;;;27.65;24.67;;;48.30;48.30;;;;;;5072672;28;20123;-72
2022/07/21 10:55:23;;;;;;;27.42;21.90;;;48.30;48.20;;;;;;5051352;28;20502;-72
2022/07/21 10:58:30;;;;;;;35.90;32.08;;;47.80;47.80;;;;;;5053297;28;20063;-72
2022/07/21 11:01:35;;;;;;;39.55;35.67;;;47.30;48.80;;;;;;5029316;28;20048;-72
2022/07/21 11:05:08;;;;;;;42.22;37.85;;;48.60;47.90;;;;;;5059448;28;20486;-72
2022/07/21 11:08:12;;;;;;;29.52;26.52;;;50.10;47.50;;;;;;5060906;28;20040;-73
2022/07/21 11:11:21;;;;;;;32.95;29.65;;;49.60;47.30;;;;;;5068003;28;20059;-72
2022/07/21 11:14:36;;;;;;;33.63;30.50;;;50.30;47.00;;;;;;5070560;28;20051;-72
2022/07/21 11:17:41;;;;;;;25.95;23.08;;;49.70;46.90;;;;;;5067336;28;20063;-72
2022/07/21 11:21:14;;;;;;;21.10;18.77;;;50.00;47.20;;;;;;5071336;28;20044;-72
2022/07/21 11:24:20;;;;;;;17.95;16.10;;;50.80;47.20;;;;;;5074232;28;20043;-72
2022/07/21 11:27:27;;;;;;;17.75;14.55;;;50.00;46.70;;;;;;5076296;28;20047;-72
2022/07/21 11:30:31;;;;;;;17.52;14.43;;;48.00;46.50;;;;;;5072915;28;20513;-72
2022/07/21 11:33:39;;;;;;;17.30;13.82;;;46.60;48.20;;;;;;5085117;28;20047;-72
2022/07/21 11:36:44;;;;;;;16.55;10.93;;;47.40;48.40;;;;;;5062063;28;20035;-72
2022/07/21 11:39:50;;;;;;;14.10;11.35;;;47.80;47.80;;;;;;5075449;28;20051;-73
2022/07/21 11:42:54;;;;;;;14.07;11.43;;;47.70;47.60;;;;;;5071429;28;20410;-72
2022/07/21 11:45:59;;;;;;;13.73;10.70;;;43.00;49.40;;;;;;5058435;28;20364;-72
2022/07/21 11:49:05;;;;;;;14.27;11.48;;;44.00;50.70;;;;;;5086296;28;20050;-72
2022/07/21 11:52:17;;;;;;;12.25;11.07;;;43.30;51.70;;;;;;5090152;28;20048;-72
2022/07/21 11:55:21;;;;;;;16.27;11.30;;;44.80;51.30;;;;;;5076740;28;20058;-72
2022/07/21 11:58:25;;;;;;;10.65;8.63;;;46.40;50.30;;;;;;5078754;28;20063;-72
2022/07/21 12:01:30;;;;;;;18.30;8.93;;;46.80;49.80;;;;;;5048120;28;20040;-72
2022/07/21 12:04:47;;;;;;;9.77;8.73;;;47.20;49.30;;;;;;5069056;28;20422;-71
2022/07/21 12:07:53;;;;;;;15.93;10.13;;;47.90;49.20;;;;;;5069822;28;20043;-71
2022/07/21 12:11:10;;;;;;;12.80;8.40;;;48.50;49.00;;;;;;5079918;28;20044;-71
2022/07/21 12:14:16;;;;;;;10.02;8.75;;;48.00;48.40;;;;;;5078569;28;20402;-73
2022/07/21 12:17:41;;;;;;;10.52;9.10;;;45.50;47.90;;;;;;5060491;28;20042;-72
2022/07/21 12:20:48;;;;;;;12.45;10.10;;;45.90;48.70;;;;;;5067390;28;20055;-72
2022/07/21 12:23:52;;;;;;;11.30;10.23;;;46.10;48.40;;;;;;5074653;28;20052;-72
2022/07/21 12:27:13;;;;;;;13.07;11.20;;;45.90;47.50;;;;;;5055798;28;20067;-72
2022/07/21 12:30:36;;;;;;;17.88;12.18;;;42.80;48.50;;;;;;5080882;28;20051;-72
2022/07/21 12:33:41;;;;;;;15.98;12.30;;;43.50;50.20;;;;;;5069418;28;20625;-71
2022/07/21 12:36:45;;;;;;;14.38;10.20;;;44.70;49.70;;;;;;5070561;28;20426;-71
2022/07/21 12:40:04;;;;;;;13.55;9.75;;;45.70;48.40;;;;;;5060551;28;20047;-71
2022/07/21 12:43:16;;;;;;;13.30;9.52;;;45.90;48.20;;;;;;5079515;28;20035;-71
2022/07/21 12:46:27;;;;;;;11.35;9.20;;;45.60;47.70;;;;;;5070783;28;20043;-72
2022/07/21 12:49:52;;;;;;;12.35;10.15;;;44.90;48.10;;;;;;5066510;28;20090;-71
2022/07/21 12:52:56;;;;;;;14.07;8.93;;;44.60;48.20;;;;;;5072477;28;20051;-71
2022/07/21 12:56:00;;;;;;;12.88;6.95;;;43.30;47.50;;;;;;5072282;28;20047;-71
2022/07/21 12:59:05;;;;;;;7.72;5.82;;;43.60;48.60;;;;;;5075336;28;20506;-70
2022/07/21 13:02:10;;;;;;;11.38;5.50;;;44.30;48.20;;;;;;5056027;28;20032;-71
2022/07/21 13:05:15;;;;;;;6.88;5.25;;;43.50;48.50;;;;;;5059746;28;20040;-73
2022/07/21 13:08:19;;;;;;;7.32;5.20;;;42.80;49.60;;;;;;5053877;28;20052;-72
2022/07/21 13:11:24;;;;;;;10.85;4.65;;;43.10;48.90;;;;;;5067774;28;20040;-72
2022/07/21 13:14:28;;;;;;;7.60;4.60;;;43.20;48.90;;;;;;5066602;28;20036;-72
2022/07/21 13:17:34;;;;;;;7.75;4.82;;;43.50;48.10;;;;;;5064241;28;20053;-70
2022/07/21 13:20:38;;;;;;;12.40;4.20;;;43.70;48.00;;;;;;5061839;28;20048;-70
2022/07/21 13:23:42;;;;;;;7.72;4.00;;;44.00;48.60;;;;;;5060215;28;20050;-72
2022/07/21 13:26:46;;;;;;;7.78;4.60;;;43.60;49.30;;;;;;5061754;28;20051;-72
2022/07/21 13:29:50;;;;;;;6.97;5.45;;;40.80;50.20;;;;;;5055101;28;20067;-73
2022/07/21 13:32:54;;;;;;;6.15;4.50;;;41.60;50.70;;;;;;5064778;28;20043;-73
2022/07/21 13:40:20;;;;;;;6.45;4.25;;;42.80;50.70;;;;;;5062841;28;20048;-72
2022/07/21 13:43:24;;;;;;;8.55;4.10;;;42.40;50.20;;;;;;5051222;28;20048;-71
2022/07/21 13:46:28;;;;;;;6.90;3.85;;;42.70;50.50;;;;;;5067182;28;20398;-72
2022/07/21 13:49:32;;;;;;;8.38;3.58;;;42.90;50.10;;;;;;5063545;28;20042;-72
2022/07/21 13:52:38;;;;;;;10.73;4.03;;;43.20;50.10;;;;;;5066967;28;20051;-70
2022/07/21 13:55:42;;;;;;;10.60;4.00;;;43.30;49.70;;;;;;5073928;28;20486;-72
2022/07/21 13:58:51;;;;;;;8.35;4.15;;;42.40;50.40;;;;;;5069538;28;20494;-70
2022/07/21 14:02:02;;;;;;;6.07;4.10;;;41.90;51.00;;;;;;5029191;28;20115;-72
2022/07/21 14:05:06;;;;;;;5.40;4.25;;;41.50;51.00;;;;;;5061593;28;20525;-72
2022/07/21 14:08:11;;;;;;;7.00;4.38;;;41.50;51.00;;;;;;5061529;28;20031;-72
2022/07/21 14:11:15;;;;;;;11.48;4.88;;;41.40;50.90;;;;;;5056771;28;20040;-74
2022/07/21 14:14:25;;;;;;;6.80;4.05;;;40.20;52.50;;;;;;5050248;28;20048;-72
2022/07/21 14:17:30;;;;;;;9.32;3.92;;;40.90;52.20;;;;;;5055427;28;20048;-72
2022/07/21 14:20:34;;;;;;;9.68;4.47;;;40.10;51.80;;;;;;5065276;28;20498;-72
2022/07/21 14:23:38;;;;;;;6.28;4.32;;;40.10;52.00;;;;;;5063762;28;20044;-73
2022/07/21 14:26:42;;;;;;;7.82;3.85;;;40.00;52.60;;;;;;5068919;28;20414;-73
2022/07/21 14:29:46;;;;;;;5.05;3.20;;;40.30;53.60;;;;;;5067411;28;20063;-74
2022/07/21 14:32:50;;;;;;;6.03;3.33;;;40.00;54.10;;;;;;5066184;28;20051;-72
2022/07/21 14:35:55;;;;;;;8.95;3.80;;;40.00;54.20;;;;;;5072693;28;20047;-72
2022/07/21 14:38:59;;;;;;;7.40;3.40;;;39.90;53.70;;;;;;5050817;28;20043;-72
2022/07/21 14:42:03;;;;;;;5.65;3.60;;;39.50;53.80;;;;;;5060119;28;20056;-73
2022/07/21 14:45:07;;;;;;;6.07;3.65;;;39.20;53.70;;;;;;5067682;28;20036;-72
2022/07/21 14:48:11;;;;;;;6.18;3.83;;;39.40;53.50;;;;;;5065649;28;20043;-72
2022/07/21 14:51:16;;;;;;;6.90;3.05;;;39.60;53.60;;;;;;5062397;28;20502;-72
2022/07/21 14:54:21;;;;;;;4.80;3.20;;;39.60;52.20;;;;;;5061177;28;20040;-74
2022/07/21 14:57:25;;;;;;;3.60;3.30;;;39.00;52.70;;;;;;5066942;28;20047;-70
2022/07/21 15:00:29;;;;;;;6.35;3.78;;;39.20;52.60;;;;;;5065660;28;20052;-71
2022/07/21 15:03:33;;;;;;;4.28;3.30;;;39.30;52.50;;;;;;5064438;28;20040;-71
2022/07/21 15:06:37;;;;;;;5.22;3.58;;;39.40;52.70;;;;;;5049106;28;20040;-71
2022/07/21 15:09:41;;;;;;;3.40;3.00;;;39.40;52.60;;;;;;5066394;28;20494;-72
2022/07/21 15:12:46;;;;;;;3.92;2.90;;;39.20;52.30;;;;;;5072182;28;20051;-72
2022/07/21 15:15:50;;;;;;;4.72;2.90;;;39.20;52.50;;;;;;5059795;28;20047;-72
2022/07/21 15:18:54;;;;;;;4.70;2.90;;;38.50;52.90;;;;;;5062696;28;20625;-72
2022/07/21 15:21:59;;;;;;;5.57;3.08;;;38.60;53.40;;;;;;5071066;28;20380;-72
2022/07/21 15:25:09;;;;;;;6.22;3.03;;;38.70;52.70;;;;;;5071721;28;20055;-72
2022/07/21 15:28:13;;;;;;;4.88;2.80;;;38.70;52.90;;;;;;5070192;28;20051;-72
2022/07/21 15:31:17;;;;;;;6.10;3.10;;;37.90;53.00;;;;;;5053418;28;20035;-72
2022/07/21 15:34:21;;;;;;;4.45;2.90;;;37.70;53.40;;;;;;5070944;28;20056;-72
2022/07/21 15:37:25;;;;;;;7.07;2.90;;;37.70;53.70;;;;;;5070360;28;21548;-73
2022/07/21 15:40:30;;;;;;;6.47;3.38;;;37.60;54.00;;;;;;5068366;28;20065;-70
2022/07/21 15:43:34;;;;;;;3.63;3.00;;;37.50;54.50;;;;;;5070058;28;20402;-70
2022/07/21 15:46:39;;;;;;;10.95;3.22;;;37.80;54.60;;;;;;5066994;28;20494;-70
2022/07/21 15:49:43;;;;;;;8.05;3.70;;;37.90;53.70;;;;;;5068125;28;20493;-70
2022/07/21 15:52:47;;;;;;;7.45;3.92;;;37.50;53.90;;;;;;5073500;28;20061;-70